createdAt,value
2023-03-11T00:00:41.463Z,1110.18
2023-03-11T00:01:41.521Z,1114.84
2023-03-11T00:02:41.426Z,1118.59
2023-03-11T00:03:41.425Z,1126.16
2023-03-11T00:04:41.407Z,1136.75
2023-03-11T00:05:41.520Z,1133.84
2023-03-11T00:06:41.379Z,1129.03
2023-03-11T00:07:41.372Z,1124.26
2023-03-11T00:08:41.368Z,1119.53
2023-03-11T00:09:41.350Z,1112.04
2023-03-11T00:10:41.359Z,1111.11
2023-03-11T00:11:41.325Z,1122.36
2023-03-11T00:12:41.296Z,1118.59
2023-03-11T00:13:41.304Z,1119.53
2023-03-11T00:14:41.295Z,1120.47
2023-03-11T00:15:41.275Z,1119.53
2023-03-11T00:16:41.321Z,1126.16
2023-03-11T00:17:41.257Z,1123.31
2023-03-11T00:18:41.230Z,1091.06
2023-03-11T00:19:41.218Z,1099.17
2023-03-11T00:20:41.218Z,1110.18
2023-03-11T00:21:41.190Z,1122.36
2023-03-11T00:22:41.172Z,1138.70
2023-03-11T00:23:41.173Z,1149.52
2023-03-11T00:24:41.159Z,1157.53
2023-03-11T00:25:41.167Z,1170.77
2023-03-11T00:26:41.120Z,1186.44
2023-03-11T00:27:41.135Z,1184.33
2023-03-11T00:28:41.109Z,1196.04
2023-03-11T00:29:41.109Z,1187.50
2023-03-11T00:30:41.154Z,1189.62
2023-03-11T00:31:41.069Z,1174.91
2023-03-11T00:32:41.098Z,1175.95
2023-03-11T00:33:41.029Z,1163.60
2023-03-11T00:34:41.025Z,1168.72
2023-03-11T00:35:41.141Z,1175.95
2023-03-11T00:36:41.007Z,1179.08
2023-03-11T00:37:40.988Z,1199.28
2023-03-11T00:38:41.075Z,1210.19
2023-03-11T00:39:40.961Z,1204.71
2023-03-11T00:40:40.939Z,1200.36
2023-03-11T00:41:40.945Z,1212.40
2023-03-11T00:42:40.915Z,1216.83
2023-03-11T00:43:40.896Z,1204.71
2023-03-11T00:44:40.882Z,1202.53
2023-03-11T00:45:40.871Z,1212.40
2023-03-11T00:46:40.877Z,1203.62
2023-03-11T00:47:40.846Z,1192.82
2023-03-11T00:48:40.827Z,1188.56
2023-03-11T00:49:40.818Z,1188.56
2023-03-11T00:50:40.807Z,1201.44
2023-03-11T00:51:40.806Z,1199.28
2023-03-11T00:52:40.777Z,1210.19
2023-03-11T00:53:40.781Z,1206.90
2023-03-11T00:54:40.753Z,1182.22
2023-03-11T00:55:40.741Z,1192.82
2023-03-11T00:56:40.758Z,1185.38
2023-03-11T00:57:40.724Z,1186.44
2023-03-11T00:58:40.707Z,1178.03
2023-03-11T00:59:40.689Z,1187.50
2023-03-11T01:00:40.691Z,1166.67
2023-03-11T01:01:40.718Z,1163.60
2023-03-11T01:02:40.656Z,1160.56
2023-03-11T01:03:40.650Z,1157.53
2023-03-11T01:04:40.811Z,1163.60
2023-03-11T01:05:40.628Z,1167.69
2023-03-11T01:06:45.596Z,1169.74
2023-03-11T01:07:40.603Z,1170.77
2023-03-11T01:08:40.573Z,1180.12
2023-03-11T01:09:40.576Z,1178.03
2023-03-11T01:10:40.546Z,1168.72
2023-03-11T01:11:40.545Z,1159.55
2023-03-11T01:12:40.529Z,1171.81
2023-03-11T01:13:40.500Z,1173.87
2023-03-11T01:14:40.493Z,1168.72
2023-03-11T01:15:40.507Z,1167.69
2023-03-11T01:16:40.481Z,1150.52
2023-03-11T01:17:40.464Z,1146.55
2023-03-11T01:18:40.453Z,1136.75
2023-03-11T01:19:40.432Z,1150.52
2023-03-11T01:20:40.434Z,1160.56
2023-03-11T01:21:40.423Z,1165.64
2023-03-11T01:22:40.406Z,1150.52
2023-03-11T01:23:40.377Z,1149.52
2023-03-11T01:24:40.383Z,1153.51
2023-03-11T01:25:40.373Z,1143.59
2023-03-11T01:26:40.340Z,1145.56
2023-03-11T01:27:40.331Z,1141.63
2023-03-11T01:28:40.316Z,1144.58
2023-03-11T01:29:40.307Z,1133.84
2023-03-11T01:30:40.296Z,1140.65
2023-03-11T01:31:40.293Z,1145.56
2023-03-11T01:32:40.334Z,1129.03
2023-03-11T01:33:40.256Z,1128.07
2023-03-11T01:34:40.244Z,1131.92
2023-03-11T01:35:40.246Z,1119.53
2023-03-11T01:36:40.212Z,1106.49
2023-03-11T01:37:40.196Z,1108.33
2023-03-11T01:38:40.192Z,1097.36
2023-03-11T01:39:40.169Z,1098.27
2023-03-11T01:40:40.164Z,1091.06
2023-03-11T01:41:40.141Z,1087.49
2023-03-11T01:42:40.132Z,1093.75
2023-03-11T01:43:40.129Z,1100.99
2023-03-11T01:44:40.107Z,1098.27
2023-03-11T01:45:40.102Z,1090.16
2023-03-11T01:46:40.176Z,1089.27
2023-03-11T01:47:40.084Z,1092.85
2023-03-11T01:48:40.063Z,1094.65
2023-03-11T01:49:40.042Z,1087.49
2023-03-11T01:50:40.024Z,1083.94
2023-03-11T01:51:40.015Z,1076.92
2023-03-11T01:52:40.008Z,1081.30
2023-03-11T01:53:40.028Z,1083.06
2023-03-11T01:54:39.979Z,1076.92
2023-03-11T01:55:39.963Z,1078.67
2023-03-11T01:56:39.948Z,1078.67
2023-03-11T01:57:39.940Z,1076.05
2023-03-11T01:58:39.944Z,1083.94
2023-03-11T01:59:39.911Z,1074.31
2023-03-11T02:00:39.895Z,1075.18
2023-03-11T02:01:39.907Z,1076.05
2023-03-11T02:02:39.918Z,1089.27
2023-03-11T02:03:39.870Z,1095.55
2023-03-11T02:04:39.865Z,1098.27
2023-03-11T02:05:39.837Z,1084.83
2023-03-11T02:06:39.818Z,1103.73
2023-03-11T02:07:39.801Z,1122.36
2023-03-11T02:08:39.809Z,1135.78
2023-03-11T02:09:39.783Z,1130.95
2023-03-11T02:10:39.773Z,1129.99
2023-03-11T02:11:39.758Z,1136.75
2023-03-11T02:12:39.745Z,1137.72
2023-03-11T02:13:39.745Z,1140.65
2023-03-11T02:14:39.723Z,1127.12
2023-03-11T02:15:40.223Z,1134.81
2023-03-11T02:16:39.703Z,1129.99
2023-03-11T02:17:39.687Z,1128.07
2023-03-11T02:18:39.693Z,1130.95
2023-03-11T02:19:39.662Z,1125.21
2023-03-11T02:20:39.644Z,1118.59
2023-03-11T02:21:39.627Z,1115.77
2023-03-11T02:22:39.621Z,1113.90
2023-03-11T02:23:39.615Z,1097.36
2023-03-11T02:24:39.589Z,1099.17
2023-03-11T02:25:39.576Z,1096.45
2023-03-11T02:26:39.565Z,1088.38
2023-03-11T02:27:39.572Z,1087.49
2023-03-11T02:28:39.565Z,1083.94
2023-03-11T02:29:39.530Z,1087.49
2023-03-11T02:30:39.516Z,1095.55
2023-03-11T02:31:41.799Z,1089.27
2023-03-11T02:32:39.533Z,1090.16
2023-03-11T02:33:39.478Z,1102.82
2023-03-11T02:34:39.496Z,1107.41
2023-03-11T02:35:39.490Z,1108.33
2023-03-11T02:36:39.441Z,1115.77
2023-03-11T02:37:39.436Z,1107.41
2023-03-11T02:38:39.421Z,1107.41
2023-03-11T02:39:39.407Z,1108.33
2023-03-11T02:40:39.392Z,1120.47
2023-03-11T02:41:39.380Z,1135.78
2023-03-11T02:42:39.375Z,1142.61
2023-03-11T02:43:39.352Z,1143.59
2023-03-11T02:44:39.350Z,1129.99
2023-03-11T02:45:39.324Z,1121.42
2023-03-11T02:46:39.350Z,1124.26
2023-03-11T02:47:39.309Z,1134.81
2023-03-11T02:48:39.302Z,1125.21
2023-03-11T02:49:39.284Z,1127.12
2023-03-11T02:50:39.258Z,1133.84
2023-03-11T02:51:39.239Z,1129.03
2023-03-11T02:52:39.230Z,1126.16
2023-03-11T02:53:39.230Z,1129.99
2023-03-11T02:54:39.263Z,1136.75
2023-03-11T02:55:39.194Z,1131.92
2023-03-11T02:56:39.176Z,1132.88
2023-03-11T02:57:39.186Z,1148.53
2023-03-11T02:58:39.154Z,1151.52
2023-03-11T02:59:39.134Z,1159.55
2023-03-11T03:00:39.161Z,1153.51
2023-03-11T03:01:39.127Z,1154.51
2023-03-11T03:02:39.108Z,1150.52
2023-03-11T03:03:39.082Z,1136.75
2023-03-11T03:04:39.075Z,1151.52
2023-03-11T03:05:39.073Z,1152.51
2023-03-11T03:06:39.065Z,1160.56
2023-03-11T03:07:39.029Z,1173.87
2023-03-11T03:08:39.019Z,1188.56
2023-03-11T03:09:39.033Z,1194.97
2023-03-11T03:10:39.013Z,1204.71
2023-03-11T03:11:39.001Z,1209.09
2023-03-11T03:12:38.980Z,1213.50
2023-03-11T03:13:38.952Z,1211.29
2023-03-11T03:14:38.951Z,1214.61
2023-03-11T03:15:38.941Z,1205.80
2023-03-11T03:16:39.187Z,1209.09
2023-03-11T03:17:38.958Z,1219.06
2023-03-11T03:18:38.898Z,1211.29
2023-03-11T03:19:38.882Z,1206.90
2023-03-11T03:20:38.880Z,1206.90
2023-03-11T03:21:38.852Z,1213.50
2023-03-11T03:22:38.867Z,1206.90
2023-03-11T03:23:38.828Z,1211.29
2023-03-11T03:24:38.825Z,1223.55
2023-03-11T03:25:38.815Z,1244.15
2023-03-11T03:26:38.789Z,1246.48
2023-03-11T03:27:38.784Z,1251.18
2023-03-11T03:28:38.770Z,1255.90
2023-03-11T03:29:38.794Z,1261.86
2023-03-11T03:30:38.749Z,1263.06
2023-03-11T03:31:38.790Z,1266.67
2023-03-11T03:32:38.784Z,1261.86
2023-03-11T03:33:38.711Z,1265.46
2023-03-11T03:34:38.742Z,1272.73
2023-03-11T03:35:38.707Z,1285.02
2023-03-11T03:36:38.668Z,1291.26
2023-03-11T03:37:38.655Z,1296.30
2023-03-11T03:38:38.652Z,1285.02
2023-03-11T03:39:38.623Z,1273.95
2023-03-11T03:40:38.622Z,1273.95
2023-03-11T03:41:38.605Z,1277.62
2023-03-11T03:42:38.584Z,1285.02
2023-03-11T03:43:38.571Z,1295.03
2023-03-11T03:44:38.588Z,1310.34
2023-03-11T03:45:38.632Z,1315.53
2023-03-11T03:46:38.558Z,1309.06
2023-03-11T03:47:38.518Z,1298.83
2023-03-11T03:48:38.513Z,1296.30
2023-03-11T03:49:38.511Z,1296.30
2023-03-11T03:50:38.486Z,1307.77
2023-03-11T03:51:38.483Z,1330.00
2023-03-11T03:52:38.467Z,1338.03
2023-03-11T03:53:38.452Z,1347.52
2023-03-11T03:54:38.446Z,1336.68
2023-03-11T03:55:38.424Z,1332.67
2023-03-11T03:56:38.422Z,1324.70
2023-03-11T03:57:38.394Z,1306.48
2023-03-11T03:58:38.396Z,1302.64
2023-03-11T03:59:38.376Z,1290.01
2023-03-11T04:00:38.359Z,1283.78
2023-03-11T04:01:38.391Z,1280.08
2023-03-11T04:02:38.365Z,1287.51
2023-03-11T04:03:38.474Z,1287.51
2023-03-11T04:04:38.315Z,1293.77
2023-03-11T04:05:38.299Z,1310.34
2023-03-11T04:06:38.288Z,1297.56
2023-03-11T04:07:38.285Z,1293.77
2023-03-11T04:08:38.259Z,1297.56
2023-03-11T04:09:38.250Z,1307.77
2023-03-11T04:10:38.234Z,1314.23
2023-03-11T04:11:38.230Z,1314.23
2023-03-11T04:12:38.221Z,1314.23
2023-03-11T04:13:38.190Z,1306.48
2023-03-11T04:14:38.196Z,1302.64
2023-03-11T04:15:38.166Z,1306.48
2023-03-11T04:16:38.214Z,1305.20
2023-03-11T04:17:38.150Z,1292.52
2023-03-11T04:18:38.142Z,1276.39
2023-03-11T04:19:38.123Z,1275.17
2023-03-11T04:20:38.116Z,1271.51
2023-03-11T04:21:38.092Z,1273.95
2023-03-11T04:22:38.104Z,1264.26
2023-03-11T04:23:38.063Z,1261.86
2023-03-11T04:24:38.056Z,1270.30
2023-03-11T04:25:38.043Z,1282.55
2023-03-11T04:26:38.045Z,1276.39
2023-03-11T04:27:38.029Z,1265.46
2023-03-11T04:28:38.009Z,1253.53
2023-03-11T04:29:38.000Z,1251.18
2023-03-11T04:30:38.049Z,1223.55
2023-03-11T04:31:37.990Z,1223.55
2023-03-11T04:32:38.210Z,1212.40
2023-03-11T04:33:37.938Z,1231.48
2023-03-11T04:34:37.928Z,1234.91
2023-03-11T04:35:37.967Z,1246.48
2023-03-11T04:36:37.898Z,1244.15
2023-03-11T04:37:37.906Z,1246.48
2023-03-11T04:38:37.878Z,1239.52
2023-03-11T04:39:37.875Z,1234.91
2023-03-11T04:40:37.849Z,1212.40
2023-03-11T04:41:37.838Z,1214.61
2023-03-11T04:42:37.822Z,1211.29
2023-03-11T04:43:37.806Z,1204.71
2023-03-11T04:44:37.799Z,1196.04
2023-03-11T04:45:37.793Z,1183.27
2023-03-11T04:46:37.809Z,1182.22
2023-03-11T04:47:37.758Z,1174.91
2023-03-11T04:48:37.746Z,1163.60
2023-03-11T04:49:37.730Z,1151.52
2023-03-11T04:50:37.722Z,1147.54
2023-03-11T04:51:37.711Z,1138.70
2023-03-11T04:52:37.724Z,1147.54
2023-03-11T04:53:37.703Z,1151.52
2023-03-11T04:54:37.667Z,1136.75
2023-03-11T04:55:37.657Z,1129.99
2023-03-11T04:56:37.638Z,1120.47
2023-03-11T04:57:37.641Z,1113.90
2023-03-11T04:58:37.628Z,1076.92
2023-03-11T04:59:37.636Z,1067.42
2023-03-11T05:00:37.593Z,1044.78
2023-03-11T05:01:37.714Z,1035.02
2023-03-11T05:02:37.568Z,1026.23
2023-03-11T05:03:37.565Z,1016.82
2023-03-11T05:04:37.571Z,991.80
2023-03-11T05:05:37.531Z,996.25
2023-03-11T05:06:37.508Z,1000.75
2023-03-11T05:07:37.498Z,1006.05
2023-03-11T05:08:37.516Z,1016.82
2023-03-11T05:09:37.469Z,1021.51
2023-03-11T05:10:37.457Z,1015.27
2023-03-11T05:11:37.443Z,1018.38
2023-03-11T05:12:37.448Z,1016.82
2023-03-11T05:13:37.421Z,965.87
2023-03-11T05:14:37.408Z,954.09
2023-03-11T05:15:37.523Z,970.09
2023-03-11T05:16:37.381Z,984.46
2023-03-11T05:17:37.365Z,999.25
2023-03-11T05:18:37.378Z,1013.72
2023-03-11T05:20:30.955Z,650.03
2023-03-11T05:21:31.936Z,763.93
2023-03-11T05:22:31.928Z,830.21
2023-03-11T05:23:32.535Z,887.85
2023-03-11T05:24:31.905Z,930.72
2023-03-11T05:25:31.891Z,964.47
2023-03-11T05:26:31.880Z,993.28
2023-03-11T05:27:31.861Z,1003.02
2023-03-11T05:28:32.042Z,1009.87
2023-03-11T05:29:31.833Z,1016.04
2023-03-11T05:30:31.838Z,1014.49
2023-03-11T05:31:31.848Z,1006.05
2023-03-11T05:32:31.823Z,1005.29
2023-03-11T05:33:31.782Z,1000.00
2023-03-11T05:34:31.781Z,1006.05
2023-03-11T05:35:31.766Z,989.58
2023-03-11T05:36:31.760Z,1006.81
2023-03-11T05:37:31.726Z,1011.41
2023-03-11T05:38:31.716Z,1008.34
2023-03-11T05:39:31.711Z,998.50
2023-03-11T05:40:31.697Z,1008.34
2023-03-11T05:41:31.681Z,1012.95
2023-03-11T05:42:31.672Z,1018.38
2023-03-11T05:43:31.650Z,1023.08
2023-03-11T05:44:31.656Z,1011.41
2023-03-11T05:45:31.658Z,996.25
2023-03-11T05:46:31.683Z,935.96
2023-03-11T05:47:31.619Z,971.51
2023-03-11T05:48:32.595Z,992.54
2023-03-11T05:49:31.604Z,1016.04
2023-03-11T05:50:31.618Z,1039.06
2023-03-11T05:51:31.558Z,1064.00
2023-03-11T05:52:31.593Z,1068.27
2023-03-11T05:53:31.524Z,1061.45
2023-03-11T05:54:31.527Z,1051.38
2023-03-11T05:55:31.681Z,1045.60
2023-03-11T05:56:31.500Z,1090.16
2023-03-11T05:57:31.523Z,1103.73
2023-03-11T05:58:32.193Z,1100.08
2023-03-11T05:59:31.506Z,1111.11
2023-03-11T06:00:31.462Z,1134.81
2023-03-11T06:01:31.442Z,1158.54
2023-03-11T06:02:31.441Z,1171.81
2023-03-11T06:03:31.519Z,1183.27
2023-03-11T06:04:31.473Z,1207.99
2023-03-11T06:05:31.411Z,1222.43
2023-03-11T06:06:31.380Z,1231.48
2023-03-11T06:07:31.351Z,1242.99
2023-03-11T06:08:31.334Z,1245.32
2023-03-11T06:09:31.314Z,1259.47
2023-03-11T06:10:31.331Z,1275.17
2023-03-11T06:11:31.290Z,1287.51
2023-03-11T06:12:31.289Z,1303.92
2023-03-11T06:13:31.280Z,1318.14
2023-03-11T06:14:31.259Z,1314.23
2023-03-11T06:15:31.251Z,1311.64
2023-03-11T06:16:31.248Z,1330.00
2023-03-11T06:17:31.226Z,1286.27
2023-03-11T06:18:31.218Z,1290.01
2023-03-11T06:19:31.208Z,1315.53
2023-03-11T06:20:31.210Z,1334.00
2023-03-11T06:21:31.173Z,1347.52
2023-03-11T06:22:31.150Z,1368.31
2023-03-11T06:23:31.145Z,1376.81
2023-03-11T06:24:31.145Z,1388.31
2023-03-11T06:25:31.135Z,1401.47
2023-03-11T06:26:31.125Z,1392.67
2023-03-11T06:27:31.085Z,1404.44
2023-03-11T06:28:31.131Z,1402.95
2023-03-11T06:29:31.087Z,1398.53
2023-03-11T06:30:31.340Z,1389.76
2023-03-11T06:31:31.072Z,1383.97
2023-03-11T06:32:31.036Z,1328.67
2023-03-11T06:33:31.013Z,1350.25
2023-03-11T06:34:31.669Z,1361.31
2023-03-11T06:35:31.024Z,1340.72
2023-03-11T06:36:30.986Z,1323.38
2023-03-11T06:37:30.984Z,1316.83
2023-03-11T06:38:31.048Z,1312.93
2023-03-11T06:39:30.930Z,1306.48
2023-03-11T06:40:30.927Z,1310.34
2023-03-11T06:41:30.918Z,1320.75
2023-03-11T06:42:30.901Z,1361.31
2023-03-11T06:43:30.899Z,1382.54
2023-03-11T06:44:30.913Z,1398.53
2023-03-11T06:45:31.150Z,1417.91
2023-03-11T06:46:30.981Z,1444.08
2023-03-11T06:47:30.855Z,1458.33
2023-03-11T06:48:30.835Z,1474.50
2023-03-11T06:49:30.831Z,1487.69
2023-03-11T06:50:30.818Z,1489.36
2023-03-11T06:51:30.802Z,1469.61
2023-03-11T06:52:30.776Z,1417.91
2023-03-11T06:53:30.769Z,1408.90
2023-03-11T06:54:30.758Z,1420.94
2023-03-11T06:55:30.742Z,1447.22
2023-03-11T06:56:30.734Z,1413.39
2023-03-11T06:57:30.698Z,1391.21
2023-03-11T06:58:30.688Z,1437.84
2023-03-11T06:59:30.691Z,1463.15
2023-03-11T07:00:30.724Z,1494.38
2023-03-11T07:01:30.742Z,1497.75
2023-03-11T07:02:30.630Z,1461.54
2023-03-11T07:03:30.647Z,1469.61
2023-03-11T07:04:30.627Z,1486.03
2023-03-11T07:05:30.598Z,1502.82
2023-03-11T07:06:30.590Z,1499.44
2023-03-11T07:07:30.616Z,1496.06
2023-03-11T07:08:30.586Z,1477.78
2023-03-11T07:09:30.538Z,1476.14
2023-03-11T07:10:30.638Z,1469.61
2023-03-11T07:11:30.553Z,1472.87
2023-03-11T07:12:30.525Z,1439.39
2023-03-11T07:13:30.509Z,1448.80
2023-03-11T07:14:30.488Z,1456.74
2023-03-11T07:15:30.493Z,1440.95
2023-03-11T07:16:30.541Z,1453.55
2023-03-11T07:17:30.439Z,1445.65
2023-03-11T07:18:30.490Z,1440.95
2023-03-11T07:19:30.416Z,1433.19
2023-03-11T07:20:30.463Z,1444.08
2023-03-11T07:21:30.418Z,1440.95
2023-03-11T07:22:30.428Z,1445.65
2023-03-11T07:23:30.361Z,1428.57
2023-03-11T07:24:30.394Z,1336.68
2023-03-11T07:25:30.368Z,1355.76
2023-03-11T07:26:30.332Z,1362.70
2023-03-11T07:27:30.339Z,1346.15
2023-03-11T07:28:30.341Z,1353.00
2023-03-11T07:29:30.290Z,1359.92
2023-03-11T07:30:30.363Z,1361.31
2023-03-11T07:31:30.372Z,1376.81
2023-03-11T07:32:30.325Z,1358.53
2023-03-11T07:33:31.685Z,1334.00
2023-03-11T07:34:30.223Z,1271.51
2023-03-11T07:35:30.323Z,1290.01
2023-03-11T07:36:30.245Z,1300.10
2023-03-11T07:37:30.196Z,1307.77
2023-03-11T07:38:30.446Z,1297.56
2023-03-11T07:39:30.179Z,1305.20
2023-03-11T07:40:30.272Z,1285.02
2023-03-11T07:41:30.141Z,1290.01
2023-03-11T07:42:30.134Z,1280.08
2023-03-11T07:43:30.136Z,1230.34
2023-03-11T07:44:30.100Z,1209.09
2023-03-11T07:45:30.099Z,1226.94
2023-03-11T07:46:30.190Z,1239.52
2023-03-11T07:47:30.076Z,1237.21
2023-03-11T07:48:30.612Z,1250.00
2023-03-11T07:49:30.024Z,1236.06
2023-03-11T07:50:30.158Z,1246.48
2023-03-11T07:51:30.051Z,1245.32
2023-03-11T07:52:30.027Z,1255.90
2023-03-11T07:53:29.971Z,1267.87
2023-03-11T07:54:29.965Z,1278.85
2023-03-11T07:55:29.950Z,1288.76
2023-03-11T07:56:29.952Z,1285.02
2023-03-11T07:57:29.923Z,1287.51
2023-03-11T07:58:29.917Z,1272.73
2023-03-11T07:59:29.893Z,1271.51
2023-03-11T08:00:29.882Z,1287.51
2023-03-11T08:01:29.889Z,1310.34
2023-03-11T08:02:29.946Z,1318.14
2023-03-11T08:03:29.940Z,1301.37
2023-03-11T08:04:29.848Z,1265.46
2023-03-11T08:05:29.812Z,1260.66
2023-03-11T08:06:29.806Z,1223.55
2023-03-11T08:07:29.787Z,1224.68
2023-03-11T08:08:29.786Z,1246.48
2023-03-11T08:09:29.779Z,1254.72
2023-03-11T08:10:29.763Z,1259.47
2023-03-11T08:11:29.757Z,1261.86
2023-03-11T08:12:29.732Z,1260.66
2023-03-11T08:13:29.726Z,1272.73
2023-03-11T08:14:29.714Z,1290.01
2023-03-11T08:15:29.725Z,1287.51
2023-03-11T08:16:29.700Z,1261.86
2023-03-11T08:17:29.661Z,1190.69
2023-03-11T08:18:29.692Z,1180.12
2023-03-11T08:19:29.638Z,1203.62
2023-03-11T08:20:29.632Z,1247.65
2023-03-11T08:21:29.612Z,1290.01
2023-03-11T08:22:29.602Z,1307.77
2023-03-11T08:23:29.623Z,1292.52
2023-03-11T08:24:29.588Z,1303.92
2023-03-11T08:25:29.560Z,1340.72
2023-03-11T08:26:29.568Z,1372.55
2023-03-11T08:27:29.539Z,1386.86
2023-03-11T08:28:29.545Z,1369.72
2023-03-11T08:29:29.514Z,1357.14
2023-03-11T08:30:29.534Z,1359.92
2023-03-11T08:31:29.552Z,1334.00
2023-03-11T08:32:29.527Z,1365.50
2023-03-11T08:33:29.468Z,1408.90
2023-03-11T08:34:29.472Z,1428.57
2023-03-11T08:35:29.435Z,1442.52
2023-03-11T08:36:29.462Z,1413.39
2023-03-11T08:37:29.420Z,1395.59
2023-03-11T08:38:29.466Z,1402.95
2023-03-11T08:39:29.395Z,1378.24
2023-03-11T08:40:29.387Z,1411.89
2023-03-11T08:41:29.372Z,1420.94
2023-03-11T08:42:29.375Z,1431.65
2023-03-11T08:43:29.338Z,1382.54
2023-03-11T08:44:29.347Z,1359.92
2023-03-11T08:45:29.311Z,1375.39
2023-03-11T08:46:29.390Z,1378.24
2023-03-11T08:47:29.278Z,1419.42
2023-03-11T08:48:29.409Z,1447.22
2023-03-11T08:49:29.295Z,1447.22
2023-03-11T08:50:29.486Z,1450.38
2023-03-11T08:51:32.088Z,1461.54
2023-03-11T08:52:49.254Z,1445.65
2023-03-11T08:53:33.822Z,1381.10
2023-03-11T08:54:30.073Z,1400.00
2023-03-11T08:55:29.406Z,1423.98
2023-03-11T08:56:29.210Z,1420.94
2023-03-11T08:57:29.208Z,1411.89
2023-03-11T08:58:29.192Z,1417.91
2023-03-11T08:59:29.191Z,1402.95
2023-03-11T09:00:29.146Z,1440.95
2023-03-11T09:01:29.088Z,1497.75
2023-03-11T09:02:29.118Z,1510.51
2023-03-11T09:03:29.062Z,1562.87
2023-03-11T09:04:29.075Z,1534.91
2023-03-11T09:05:29.097Z,1539.35
2023-03-11T09:06:29.026Z,1548.31
2023-03-11T09:07:29.028Z,1577.70
2023-03-11T09:08:29.018Z,1593.77
2023-03-11T09:09:29.008Z,1571.18
2023-03-11T09:10:28.981Z,1549.21
2023-03-11T09:11:28.968Z,1545.61
2023-03-11T09:12:28.985Z,1528.73
2023-03-11T09:13:28.932Z,1528.73
2023-03-11T09:14:28.941Z,1512.22
2023-03-11T09:15:28.914Z,1510.51
2023-03-11T09:16:28.986Z,1528.73
2023-03-11T09:17:28.877Z,1534.03
2023-03-11T09:18:28.867Z,1587.11
2023-03-11T09:19:28.881Z,1573.96
2023-03-11T09:20:28.880Z,1566.55
2023-03-11T09:21:28.877Z,1561.95
2023-03-11T09:22:29.455Z,1567.47
2023-03-11T09:23:28.808Z,1527.86
2023-03-11T09:24:28.792Z,1565.63
2023-03-11T09:25:28.792Z,1547.41
2023-03-11T09:26:28.785Z,1581.45
2023-03-11T09:27:28.753Z,1575.83
2023-03-11T09:28:28.749Z,1584.28
2023-03-11T09:29:28.754Z,1606.28
2023-03-11T09:30:28.736Z,1631.90
2023-03-11T09:31:28.743Z,1647.06
2023-03-11T09:32:28.723Z,1622.94
2023-03-11T09:33:28.678Z,1645.02
2023-03-11T09:34:28.657Z,1587.11
2023-03-11T09:35:28.725Z,1571.18
2023-03-11T09:36:28.666Z,1605.31
2023-03-11T09:37:28.641Z,1604.34
2023-03-11T09:38:28.611Z,1617.02
2023-03-11T09:39:28.632Z,1615.06
2023-03-11T09:40:28.611Z,1591.86
2023-03-11T09:41:28.594Z,1594.72
2023-03-11T09:42:28.584Z,1620.96
2023-03-11T09:43:28.546Z,1573.96
2023-03-11T09:44:28.540Z,1591.86
2023-03-11T09:45:28.560Z,1584.28
2023-03-11T09:46:28.645Z,1597.60
2023-03-11T09:47:28.544Z,1634.91
2023-03-11T09:48:28.522Z,1651.15
2023-03-11T09:49:28.482Z,1653.20
2023-03-11T09:50:28.489Z,1693.19
2023-03-11T09:51:28.474Z,1722.80
2023-03-11T09:52:28.446Z,1691.04
2023-03-11T09:53:28.451Z,1711.71
2023-03-11T09:54:28.423Z,1741.98
2023-03-11T09:55:28.437Z,1774.52
2023-03-11T09:56:29.312Z,1809.52
2023-03-11T09:57:28.403Z,1848.51
2023-03-11T09:58:28.388Z,1857.54
2023-03-11T09:59:28.350Z,1865.36
2023-03-11T10:00:28.335Z,1821.92
2023-03-11T10:01:28.349Z,1736.29
2023-03-11T10:02:28.388Z,1738.56
2023-03-11T10:03:28.300Z,1758.10
2023-03-11T10:04:28.275Z,1738.56
2023-03-11T10:05:28.291Z,1785.23
2023-03-11T10:06:28.310Z,1843.38
2023-03-11T10:07:28.239Z,1761.59
2023-03-11T10:08:28.276Z,1780.45
2023-03-11T10:09:28.213Z,1760.42
2023-03-11T10:10:28.238Z,1823.17
2023-03-11T10:11:28.258Z,1834.48
2023-03-11T10:12:28.920Z,1824.42
2023-03-11T10:13:28.366Z,1810.76
2023-03-11T10:14:28.186Z,1849.79
2023-03-11T10:15:28.174Z,1871.92
2023-03-11T10:16:28.200Z,1926.14
2023-03-11T10:17:28.156Z,1968.91
2023-03-11T10:18:28.106Z,2007.55
2023-03-11T10:19:28.091Z,2036.75
2023-03-11T10:20:28.071Z,2054.05
2023-03-11T10:21:28.094Z,2081.38
2023-03-11T10:22:28.129Z,2071.65
2023-03-11T10:23:28.050Z,2092.84
2023-03-11T10:24:28.052Z,2079.75
2023-03-11T10:25:28.018Z,2073.26
2023-03-11T10:26:27.993Z,2025.89
2023-03-11T10:27:28.009Z,2003.01
2023-03-11T10:28:27.964Z,2070.04
2023-03-11T10:29:27.992Z,2102.77
2023-03-11T10:30:27.971Z,2139.98
2023-03-11T10:31:28.015Z,2129.70
2023-03-11T10:32:28.027Z,2111.11
2023-03-11T10:33:28.065Z,2155.59
2023-03-11T10:34:27.892Z,2134.83
2023-03-11T10:35:27.883Z,2101.11
2023-03-11T10:36:27.901Z,2099.45
2023-03-11T10:37:38.845Z,2116.15
2023-03-11T10:38:27.851Z,2071.65
2023-03-11T10:39:27.829Z,2081.38
2023-03-11T10:40:27.829Z,2114.47
2023-03-11T10:41:27.810Z,2141.71
2023-03-11T10:42:27.811Z,2078.12
2023-03-11T10:43:27.786Z,2133.12
2023-03-11T10:44:27.765Z,2121.21
2023-03-11T10:45:27.747Z,2052.47
2023-03-11T10:46:27.738Z,2087.91
2023-03-11T10:47:27.723Z,2134.83
2023-03-11T10:48:27.735Z,2106.10
2023-03-11T10:49:27.699Z,2111.11
2023-03-11T10:50:27.682Z,2111.11
2023-03-11T10:51:27.685Z,2102.77
2023-03-11T10:52:27.660Z,2112.79
2023-03-11T10:53:27.673Z,1934.55
2023-03-11T10:54:27.635Z,1848.51
2023-03-11T10:55:27.635Z,1808.29
2023-03-11T10:56:27.640Z,1760.42
2023-03-11T10:57:27.614Z,1813.22
2023-03-11T10:58:27.645Z,1902.72
2023-03-11T10:59:27.581Z,1977.69
2023-03-11T11:00:27.572Z,2030.53
2023-03-11T11:01:27.606Z,2016.68
2023-03-11T11:02:27.546Z,1948.72
2023-03-11T11:03:27.540Z,2041.44
2023-03-11T11:04:27.555Z,2112.79
2023-03-11T11:05:27.509Z,2134.83
2023-03-11T11:06:27.485Z,2116.15
2023-03-11T11:07:27.466Z,2099.45
2023-03-11T11:08:27.466Z,2076.50
2023-03-11T11:09:27.438Z,2065.22
2023-03-11T11:10:27.476Z,2025.89
2023-03-11T11:11:27.421Z,2066.82
2023-03-11T11:12:27.406Z,2096.14
2023-03-11T11:13:27.407Z,2122.91
2023-03-11T11:14:27.386Z,2087.91
2023-03-11T11:15:27.373Z,2063.61
2023-03-11T11:16:27.399Z,2107.76
2023-03-11T11:17:27.339Z,2162.60
2023-03-11T11:18:27.346Z,2229.67
2023-03-11T11:19:27.342Z,2269.62
2023-03-11T11:20:34.423Z,2295.08
2023-03-11T11:21:27.989Z,2325.17
2023-03-11T11:22:27.279Z,2345.68
2023-03-11T11:23:27.272Z,2333.33
2023-03-11T11:24:27.331Z,2315.06
2023-03-11T11:25:27.286Z,2250.42
2023-03-11T11:26:27.256Z,2216.67
2023-03-11T11:27:27.233Z,2227.80
2023-03-11T11:28:27.191Z,2173.20
2023-03-11T11:29:27.192Z,2091.20
2023-03-11T11:30:27.180Z,2001.50
2023-03-11T11:31:27.166Z,1966.00
2023-03-11T11:32:27.253Z,2035.19
2023-03-11T11:33:27.136Z,2063.61
2023-03-11T11:34:27.137Z,2104.43
2023-03-11T11:35:27.133Z,2136.55
2023-03-11T11:36:27.088Z,2216.67
2023-03-11T11:37:27.077Z,2281.30
2023-03-11T11:38:27.074Z,2331.29
2023-03-11T11:39:27.072Z,2385.65
2023-03-11T11:40:27.052Z,2343.61
2023-03-11T11:41:27.030Z,2287.19
2023-03-11T11:42:27.021Z,2218.51
2023-03-11T11:43:27.015Z,2275.45
2023-03-11T11:44:27.025Z,2347.75
2023-03-11T11:45:26.977Z,2431.44
2023-03-11T11:46:27.104Z,2447.10
2023-03-11T11:47:26.952Z,2283.26
2023-03-11T11:48:26.944Z,2287.19
2023-03-11T11:49:26.925Z,2353.98
2023-03-11T11:50:26.906Z,2400.72
2023-03-11T11:51:26.902Z,2368.66
2023-03-11T11:52:26.906Z,2368.66
2023-03-11T11:53:26.898Z,2370.77
2023-03-11T11:54:26.873Z,2347.75
2023-03-11T11:55:26.866Z,2349.82
2023-03-11T11:56:26.832Z,2337.43
2023-03-11T11:57:26.817Z,2339.49
2023-03-11T11:58:26.807Z,2259.98
2023-03-11T11:59:26.837Z,2285.22
2023-03-11T12:00:26.817Z,2258.06
2023-03-11T12:01:26.767Z,2273.50
2023-03-11T12:02:26.750Z,2321.12
2023-03-11T12:03:26.835Z,2335.38
2023-03-11T12:04:26.753Z,2261.90
2023-03-11T12:05:26.779Z,2198.35
2023-03-11T12:06:26.701Z,2207.47
2023-03-11T12:07:26.699Z,2119.52